• Join FlightAware (Why Join?)
  • Login
  • US Flag GB Flag 
11:07 EDT


 

Airport Tracker/Info


-or-


 

Live Flight TrackerFlight Track Log ✈ GJS3710 ✈ 28-Apr-2013 ✈ KORD - KALB

Flight Track Log - Related Links

Times and Time Zones

All times are in EDT time to prevent confusion due to time zone crossing. See the GJS3710 flight status page for this flight to view local times or setup timezone preferences in your user account.

Time Position Orientation Groundspeed Altitude Reporting Facility
EDT Latitude Longitude Course Direction KTS MPH feet Rate Location/Type
20:50 42.1240 -87.4678 63° Northeast  Level FlightAware Approximate
20:51 42.1770 -87.3193 66° East  Level FlightAware Approximate
20:52 42.2271 -87.1688 66° East  Level FlightAware Approximate
20:53 42.2667 -87.0152 90° East  Level FlightAware Approximate
20:54 42.2739 -86.8503 86° East  Level FlightAware Approximate
20:55 42.2817 -86.6855 86° East  Level FlightAware Approximate
20:56 42.2993 -86.5221 80° East  Level FlightAware Approximate
20:57 42.3000 -86.3570 90° East  Level FlightAware Approximate
20:58 42.3001 -86.1917 90° East  Level FlightAware Approximate
20:59 42.3000 -86.0265 90° East  Level FlightAware Approximate
21:00 42.3001 -85.8613 90° East  Level FlightAware Approximate
21:01 42.3000 -85.6960 90° East  Level FlightAware Approximate
21:02 42.3001 -85.5308 90° East  Level FlightAware Approximate
21:03 42.3001 -85.3655 90° East  Level FlightAware Approximate
21:04 42.3000 -85.2003 90° East  Level FlightAware Approximate
21:05 42.3000 -85.0350 90° East  Level FlightAware Approximate
21:06 42.2834 -84.8812 90° East  Level FlightAware Approximate
21:07 42.2834 -84.7160 90° East  Level FlightAware Approximate
21:08 42.2834 -84.5508 90° East  Level FlightAware Approximate
21:09 42.2942 -84.3869 80° East  Level FlightAware Approximate
21:10 42.3161 -84.2244 80° East  Level FlightAware Approximate
21:11 42.3377 -84.0617 80° East  Level FlightAware Approximate
21:12 42.3591 -83.8989 80° East  Level FlightAware Approximate
21:13 42.3804 -83.7359 80° East  Level FlightAware Approximate
21:14 42.4005 -83.5728 86° East  Level FlightAware Approximate
21:15 42.4089 -83.4077 86° East  Level FlightAware Approximate
21:16 42.4169 -83.2425 88° East  Level FlightAware Approximate
21:17 42.4219 -83.0770 88° East  Level FlightAware Approximate
21:18 42.4267 -82.9116 88° East  Level FlightAware Approximate
21:19 42.4313 -82.7461 88° East  Level FlightAware Approximate
21:20 42.4356 -82.5807 88° East  Level FlightAware Approximate
21:21 42.4396 -82.4151 88° East  Level FlightAware Approximate
21:22 42.4435 -82.2496 88° East  Level FlightAware Approximate
21:23 42.4470 -82.0841 88° East  Level FlightAware Approximate
21:24 42.4504 -81.9185 88° East  Level FlightAware Approximate
21:25 42.4535 -81.7529 88° East  Level FlightAware Approximate
21:26 42.4564 -81.5873 89° East  Level FlightAware Approximate
21:27 42.4590 -81.4217 89° East  Level FlightAware Approximate
21:28 42.4614 -81.2561 89° East  Level FlightAware Approximate
21:29 42.4636 -81.0904 89° East  Level FlightAware Approximate
21:30 42.4655 -80.9248 89° East  Level FlightAware Approximate
21:31 42.4681 -80.7591 88° East  Level FlightAware Approximate
21:32 42.4720 -80.5935 88° East  Level FlightAware Approximate
21:33 42.4758 -80.4279 88° East  Level FlightAware Approximate
21:34 42.4792 -80.2623 88° East  Level FlightAware Approximate
21:35 42.4825 -80.0966 88° East  Level FlightAware Approximate
21:36 42.4837 -79.9309 90° East  Level FlightAware Approximate
21:37 42.4840 -79.7651 90° East  Level FlightAware Approximate
21:38 42.4840 -79.5994 90° East  Level FlightAware Approximate
21:39 42.4838 -79.4337 90° East  Level FlightAware Approximate
21:40 42.4833 -79.2680 90° East  Level FlightAware Approximate
21:41 42.4941 -79.1029 85° East  Level FlightAware Approximate
21:42 42.5047 -78.9377 85° East  Level FlightAware Approximate
21:43 42.5150 -78.7725 85° East  Level FlightAware Approximate
21:44 42.5252 -78.6073 85° East  Level FlightAware Approximate
21:45 42.5350 -78.4420 85° East  Level FlightAware Approximate
21:46 42.5447 -78.2766 85° East  Level FlightAware Approximate
21:47 42.5541 -78.1112 86° East  Level FlightAware Approximate
21:48 42.5633 -77.9457 86° East  Level FlightAware Approximate
21:49 42.5740 -77.7804 84° East  Level FlightAware Approximate
21:50 42.5855 -77.6152 85° East  Level FlightAware Approximate
21:51 42.5968 -77.4499 85° East  Level FlightAware Approximate
21:52 42.6078 -77.2846 85° East  Level FlightAware Approximate
21:53 42.6182 -77.1191 86° East  Level FlightAware Approximate
21:54 42.6262 -76.9533 86° East  Level FlightAware Approximate
21:55 42.6333 -76.7875 90° East  Level FlightAware Approximate
21:56 42.6394 -76.6218 84° East  Level FlightAware Approximate
21:57 42.6500 -76.4564 90° East  Level FlightAware Approximate
21:58 42.6516 -76.2905 77° East  Level FlightAware Approximate
21:59 42.6667 -76.1266 90° East  Level FlightAware Approximate
22:00 42.6667 -75.9604 90° East  Level FlightAware Approximate
22:01 42.6807 -75.7967 75° East  Level FlightAware Approximate
22:02 42.6834 -75.6309 90° East  Level FlightAware Approximate
22:03 42.6833 -75.4647 90° East  Level FlightAware Approximate
22:04 42.6909 -75.2989 85° East  Level FlightAware Approximate
22:05 42.7014 -75.1332 85° East  Level FlightAware Approximate
22:06 42.7116 -74.9674 85° East  Level FlightAware Approximate
22:07 42.7167 -74.8014 90° East  Level FlightAware Approximate
22:08 42.7167 -74.6350 90° East  Level FlightAware Approximate
22:09 42.7234 -74.4692 83° East  Level FlightAware Approximate
22:10 42.7334 -74.3036 90° East  Level FlightAware Approximate
22:11 42.7333 -74.1372 90° East  Level FlightAware Approximate
22:12 42.7333 -73.9708 90° East  Level FlightAware Approximate
22:13 42.7333 -73.8044 90° East  Level FlightAware Approximate
22:14 42.7333 -73.8000 90° East  Level FlightAware Approximate
22:15 42.7491 -73.8020 90° East  Level Estimated
22:16 42.7491 -73.8020 90° East  Level Estimated
22:17 42.7491 -73.8020 90° East  Level Estimated
22:18 42.7491 -73.8020 90° East  Level Estimated
22:19 42.7491 -73.8020 90° East  Level Estimated
22:20 42.7491 -73.8020 90° East  Level Estimated
22:21 42.7491 -73.8020 90° East  Level Estimated
22:22 42.7491 -73.8020 90° East  Level Estimated
22:23 42.7491 -73.8020 90° East  Level Estimated